Time;durP1;ratioP1;P1;durP2;ratioP2;P2;SDS_P1;SDS_P2;PMS_P1;PMS_P2;Temp;Humidity;BMP_temperature;BMP_pressure;BME280_temperature;BME280_humidity;BME280_pressure;Samples;Min_cycle;Max_cycle;Signal;HPM_P1;HPM_P2
2021/01/24 00:01:34;;;;;;;64.90;31.40;;;;;;;;;;4992909;28;20054;-66
2021/01/24 00:04:20;;;;;;;78.40;35.95;;;;;;;;;;4998069;28;20049;-66
2021/01/24 00:07:05;;;;;;;93.90;38.83;;;;;;;;;;5033745;28;20053;-66
2021/01/24 00:09:50;;;;;;;87.88;38.88;;;;;;;;;;5033606;28;20125;-66
2021/01/24 00:12:35;;;;;;;72.07;40.83;;;;;;;;;;5033507;28;20072;-66
2021/01/24 00:15:21;;;;;;;78.07;38.45;;;;;;;;;;5033432;28;20038;-66
2021/01/24 00:18:06;;;;;;;77.07;38.75;;;;;;;;;;4994058;28;20058;-66
2021/01/24 00:20:51;;;;;;;82.85;37.97;;;;;;;;;;5005491;28;20053;-66
2021/01/24 00:23:38;;;;;;;66.85;33.22;;;;;;;;;;5006679;28;20041;-66
2021/01/24 00:26:23;;;;;;;84.10;39.22;;;;;;;;;;5009494;28;20466;-66
2021/01/24 00:29:08;;;;;;;88.53;39.78;;;;;;;;;;5001746;28;20046;-66
2021/01/24 00:31:54;;;;;;;88.38;39.70;;;;;;;;;;5009325;28;20070;-66
2021/01/24 00:34:40;;;;;;;73.05;36.95;;;;;;;;;;5012790;28;20054;-66
2021/01/24 00:37:26;;;;;;;68.70;34.38;;;;;;;;;;5012125;28;20053;-66
2021/01/24 00:40:11;;;;;;;63.13;33.05;;;;;;;;;;5013449;28;20049;-66
2021/01/24 00:42:56;;;;;;;72.53;38.30;;;;;;;;;;5012838;28;20440;-66
2021/01/24 00:45:42;;;;;;;88.15;41.70;;;;;;;;;;5013239;28;20045;-66
2021/01/24 00:48:27;;;;;;;80.50;38.25;;;;;;;;;;5012872;28;20489;-65
2021/01/24 00:51:12;;;;;;;92.05;43.25;;;;;;;;;;4998331;28;20038;-66
2021/01/24 00:53:59;;;;;;;90.43;43.97;;;;;;;;;;4998197;28;20065;-66
2021/01/24 00:56:44;;;;;;;95.07;43.33;;;;;;;;;;5010542;28;20046;-66
2021/01/24 00:59:29;;;;;;;99.40;43.17;;;;;;;;;;5013105;28;20042;-66
2021/01/24 01:02:15;;;;;;;93.80;39.95;;;;;;;;;;5012586;28;20065;-66
2021/01/24 01:05:01;;;;;;;103.30;42.85;;;;;;;;;;5012819;28;20574;-66
2021/01/24 01:07:46;;;;;;;81.60;37.50;;;;;;;;;;5004850;28;20049;-66
2021/01/24 01:10:31;;;;;;;86.10;36.53;;;;;;;;;;5012827;28;20113;-66
2021/01/24 01:13:17;;;;;;;84.80;40.40;;;;;;;;;;4998193;28;20046;-66
2021/01/24 01:16:02;;;;;;;93.75;43.45;;;;;;;;;;5012397;28;20041;-66
2021/01/24 01:18:47;;;;;;;105.78;44.13;;;;;;;;;;4997965;28;20077;-66
2021/01/24 01:21:32;;;;;;;103.47;45.30;;;;;;;;;;5012480;28;20070;-66
2021/01/24 01:24:17;;;;;;;94.95;39.45;;;;;;;;;;5010989;28;20049;-66
2021/01/24 01:27:03;;;;;;;91.60;38.88;;;;;;;;;;5012489;28;20045;-65
2021/01/24 01:29:48;;;;;;;91.97;39.10;;;;;;;;;;5012535;28;20054;-66
2021/01/24 01:32:33;;;;;;;101.05;39.70;;;;;;;;;;5012096;28;20042;-65
2021/01/24 01:35:19;;;;;;;96.15;38.60;;;;;;;;;;5012092;28;20504;-66
2021/01/24 01:38:04;;;;;;;99.35;40.15;;;;;;;;;;4991770;28;20114;-65
2021/01/24 01:40:53;;;;;;;92.38;39.92;;;;;;;;;;5001595;28;20038;-65
2021/01/24 01:43:39;;;;;;;107.32;44.03;;;;;;;;;;5011657;28;20485;-65
2021/01/24 01:46:24;;;;;;;100.13;43.05;;;;;;;;;;5011957;28;20046;-65
2021/01/24 01:49:09;;;;;;;106.47;43.42;;;;;;;;;;4997529;28;20049;-65
2021/01/24 01:51:54;;;;;;;106.97;47.00;;;;;;;;;;5012080;28;20472;-66
2021/01/24 01:54:43;;;;;;;100.22;43.97;;;;;;;;;;4997319;28;20052;-65
2021/01/24 01:57:28;;;;;;;81.85;36.90;;;;;;;;;;4997459;28;20098;-66
2021/01/24 02:00:13;;;;;;;99.38;42.60;;;;;;;;;;5011846;28;20455;-65
2021/01/24 02:03:10;;;;;;;124.38;48.35;;;;;;;;;;5011883;28;20041;-65
2021/01/24 02:05:58;;;;;;;125.32;52.63;;;;;;;;;;5012169;28;20060;-66
2021/01/24 02:08:47;;;;;;;112.88;48.67;;;;;;;;;;4977857;28;20042;-66
2021/01/24 02:11:44;;;;;;;113.47;43.72;;;;;;;;;;4992338;28;20046;-66
2021/01/24 02:14:37;;;;;;;117.55;44.65;;;;;;;;;;5005675;28;20404;-66
2021/01/24 02:17:22;;;;;;;110.97;45.22;;;;;;;;;;4991685;28;20062;-66
2021/01/24 02:20:10;;;;;;;124.50;49.65;;;;;;;;;;4997113;28;20038;-65
2021/01/24 02:22:56;;;;;;;113.95;48.70;;;;;;;;;;4997211;28;20048;-66
2021/01/24 02:25:59;;;;;;;116.30;47.70;;;;;;;;;;5012030;28;20485;-65
2021/01/24 02:28:51;;;;;;;125.45;50.00;;;;;;;;;;5011611;28;20524;-66
2021/01/24 02:31:36;;;;;;;132.98;52.55;;;;;;;;;;5011606;28;20102;-66
2021/01/24 02:34:21;;;;;;;131.60;55.80;;;;;;;;;;4991488;28;20042;-66
2021/01/24 02:37:07;;;;;;;137.02;55.20;;;;;;;;;;5009592;28;20600;-66
2021/01/24 02:39:52;;;;;;;153.57;65.85;;;;;;;;;;4996844;28;20500;-66
2021/01/24 02:42:38;;;;;;;166.48;68.28;;;;;;;;;;5011593;28;20046;-66
2021/01/24 02:45:23;;;;;;;149.10;61.40;;;;;;;;;;4995355;28;20113;-66
2021/01/24 02:48:09;;;;;;;169.13;65.78;;;;;;;;;;4991031;28;20050;-66
2021/01/24 02:50:54;;;;;;;171.88;69.97;;;;;;;;;;5004875;28;20042;-66
2021/01/24 02:53:40;;;;;;;145.50;55.00;;;;;;;;;;4996668;28;20062;-66
2021/01/24 02:56:25;;;;;;;154.40;67.63;;;;;;;;;;5009422;28;20595;-66
2021/01/24 02:59:10;;;;;;;151.98;60.80;;;;;;;;;;4989491;28;20045;-66
2021/01/24 03:01:55;;;;;;;133.50;55.22;;;;;;;;;;4998757;28;20049;-66
2021/01/24 03:04:40;;;;;;;123.63;52.95;;;;;;;;;;5007839;28;20046;-65
2021/01/24 03:07:26;;;;;;;109.10;50.67;;;;;;;;;;5014715;28;20397;-66
2021/01/24 03:10:12;;;;;;;97.97;44.95;;;;;;;;;;5000451;28;20046;-66
2021/01/24 03:13:05;;;;;;;119.13;52.53;;;;;;;;;;4999144;28;20037;-66
2021/01/24 03:15:51;;;;;;;105.32;44.40;;;;;;;;;;4999166;28;20042;-66
2021/01/24 03:18:37;;;;;;;118.78;51.80;;;;;;;;;;5000260;28;20046;-66
2021/01/24 03:21:22;;;;;;;140.68;54.80;;;;;;;;;;4999943;28;20045;-66
2021/01/24 03:24:07;;;;;;;123.13;55.28;;;;;;;;;;5014545;28;20046;-66
2021/01/24 03:26:52;;;;;;;129.07;54.67;;;;;;;;;;5000002;28;20046;-66
2021/01/24 03:29:38;;;;;;;172.68;66.18;;;;;;;;;;4999982;28;20042;-66
2021/01/24 03:32:23;;;;;;;123.60;53.60;;;;;;;;;;4999680;28;20041;-66
2021/01/24 03:35:08;;;;;;;105.82;45.80;;;;;;;;;;5014533;28;20046;-66
2021/01/24 03:37:53;;;;;;;140.27;57.08;;;;;;;;;;5014203;28;20046;-65
2021/01/24 03:40:39;;;;;;;134.38;57.72;;;;;;;;;;5011421;28;20050;-65
2021/01/24 03:43:24;;;;;;;139.15;55.28;;;;;;;;;;5004486;28;20042;-65
2021/01/24 03:46:09;;;;;;;131.13;55.47;;;;;;;;;;5014147;28;20049;-65
2021/01/24 03:48:55;;;;;;;136.38;57.85;;;;;;;;;;5010628;28;20477;-65
2021/01/24 03:51:40;;;;;;;145.25;59.65;;;;;;;;;;4998872;28;20496;-65
2021/01/24 03:54:25;;;;;;;106.38;49.28;;;;;;;;;;5014177;28;20384;-65
2021/01/24 03:57:10;;;;;;;125.75;54.30;;;;;;;;;;5013896;28;20132;-65
2021/01/24 03:59:56;;;;;;;123.22;55.60;;;;;;;;;;5013865;28;20492;-65
2021/01/24 04:02:41;;;;;;;118.45;52.65;;;;;;;;;;5013941;28;20041;-65
2021/01/24 04:05:26;;;;;;;118.53;49.42;;;;;;;;;;5013849;28;20173;-65
2021/01/24 04:08:13;;;;;;;100.80;48.03;;;;;;;;;;5013536;28;20034;-65
2021/01/24 04:10:59;;;;;;;99.68;46.40;;;;;;;;;;5013696;28;20493;-65
2021/01/24 04:13:44;;;;;;;114.80;53.75;;;;;;;;;;5005865;28;20042;-65
2021/01/24 04:16:29;;;;;;;136.73;58.60;;;;;;;;;;5011947;28;20500;-65
2021/01/24 04:19:15;;;;;;;109.68;49.47;;;;;;;;;;5013730;28;20074;-65
2021/01/24 04:22:00;;;;;;;119.55;49.70;;;;;;;;;;4995459;28;20050;-65
2021/01/24 04:24:45;;;;;;;88.95;38.47;;;;;;;;;;5001666;28;20485;-65
2021/01/24 04:27:31;;;;;;;92.05;42.20;;;;;;;;;;4994026;28;20050;-65
2021/01/24 04:30:16;;;;;;;120.28;51.88;;;;;;;;;;5009123;28;20048;-65
2021/01/24 04:33:02;;;;;;;83.45;39.35;;;;;;;;;;5013441;28;20199;-65
2021/01/24 04:35:47;;;;;;;77.28;38.10;;;;;;;;;;5013075;28;20513;-65
2021/01/24 04:38:32;;;;;;;88.78;37.70;;;;;;;;;;5013422;28;20046;-64
2021/01/24 04:41:18;;;;;;;94.53;39.85;;;;;;;;;;5013115;28;20508;-65
2021/01/24 04:44:06;;;;;;;88.75;39.10;;;;;;;;;;4998512;28;20042;-65
2021/01/24 04:46:51;;;;;;;87.38;40.90;;;;;;;;;;4993453;28;20046;-64
2021/01/24 04:49:36;;;;;;;86.32;39.95;;;;;;;;;;4998315;28;20061;-64
2021/01/24 04:52:22;;;;;;;82.70;38.70;;;;;;;;;;4996892;28;20046;-65
2021/01/24 04:55:07;;;;;;;80.15;34.30;;;;;;;;;;4998392;28;20684;-65
2021/01/24 04:57:53;;;;;;;77.38;31.65;;;;;;;;;;5011453;28;20046;-65
2021/01/24 05:00:38;;;;;;;67.00;32.42;;;;;;;;;;5012677;28;20046;-65
2021/01/24 05:03:23;;;;;;;71.97;32.70;;;;;;;;;;5013015;28;20046;-65
2021/01/24 05:06:09;;;;;;;74.28;34.22;;;;;;;;;;5012518;28;20057;-65
2021/01/24 05:08:59;;;;;;;69.25;33.80;;;;;;;;;;5012905;28;20046;-65
2021/01/24 05:11:54;;;;;;;63.38;29.13;;;;;;;;;;5012365;28;20480;-65
2021/01/24 05:14:40;;;;;;;69.18;31.40;;;;;;;;;;5012422;28;20061;-65
2021/01/24 05:17:25;;;;;;;72.93;32.30;;;;;;;;;;5012354;28;20476;-65
2021/01/24 05:20:11;;;;;;;87.40;33.53;;;;;;;;;;5012713;28;20065;-65
2021/01/24 05:22:56;;;;;;;80.60;35.75;;;;;;;;;;4996788;28;20042;-65
2021/01/24 05:25:42;;;;;;;75.78;34.92;;;;;;;;;;5012687;28;20078;-66
2021/01/24 05:28:28;;;;;;;82.82;36.88;;;;;;;;;;5012570;28;20448;-65
2021/01/24 05:31:13;;;;;;;78.50;34.88;;;;;;;;;;4992675;28;20070;-65
2021/01/24 05:33:59;;;;;;;87.53;37.90;;;;;;;;;;4992862;28;20046;-65
2021/01/24 05:36:44;;;;;;;82.60;33.97;;;;;;;;;;4992635;28;20047;-65
2021/01/24 05:39:31;;;;;;;79.28;34.25;;;;;;;;;;4997713;28;20034;-65
2021/01/24 05:42:18;;;;;;;67.13;30.75;;;;;;;;;;5010733;28;20057;-65
2021/01/24 05:45:08;;;;;;;73.10;32.10;;;;;;;;;;5012378;28;20050;-65
2021/01/24 05:47:53;;;;;;;76.43;33.47;;;;;;;;;;5012145;28;20061;-65
2021/01/24 05:50:40;;;;;;;76.90;30.60;;;;;;;;;;5011711;28;20552;-65
2021/01/24 05:53:25;;;;;;;79.20;33.33;;;;;;;;;;4997427;28;20504;-65
2021/01/24 05:56:11;;;;;;;76.93;34.30;;;;;;;;;;4997236;28;20133;-65
2021/01/24 05:58:59;;;;;;;76.38;33.40;;;;;;;;;;5012077;28;20046;-65
2021/01/24 06:01:44;;;;;;;83.28;37.35;;;;;;;;;;4996539;28;20038;-65
2021/01/24 06:04:30;;;;;;;71.70;32.13;;;;;;;;;;4993052;28;20054;-65
2021/01/24 06:07:15;;;;;;;78.70;31.92;;;;;;;;;;4996301;28;20042;-65
2021/01/24 06:10:02;;;;;;;75.80;31.85;;;;;;;;;;4991521;28;20493;-65
2021/01/24 06:12:47;;;;;;;70.72;30.95;;;;;;;;;;4992280;28;20070;-65
2021/01/24 06:15:33;;;;;;;73.72;31.52;;;;;;;;;;4988670;28;20404;-64
2021/01/24 06:18:19;;;;;;;75.15;31.58;;;;;;;;;;4999086;28;20038;-64
2021/01/24 06:21:04;;;;;;;64.80;29.15;;;;;;;;;;5011237;28;20050;-64
2021/01/24 06:23:54;;;;;;;71.30;30.95;;;;;;;;;;4997299;28;20117;-65
2021/01/24 06:26:43;;;;;;;69.97;31.15;;;;;;;;;;5011648;28;20050;-65
2021/01/24 06:29:28;;;;;;;74.50;31.83;;;;;;;;;;5011870;28;20049;-65
2021/01/24 06:32:23;;;;;;;71.07;28.77;;;;;;;;;;5010187;28;20496;-65
2021/01/24 06:35:15;;;;;;;62.63;27.77;;;;;;;;;;5011923;28;20041;-65
2021/01/24 06:38:01;;;;;;;59.65;27.48;;;;;;;;;;5015512;28;20050;-65
2021/01/24 06:40:46;;;;;;;71.60;34.10;;;;;;;;;;5015388;28;20046;-64
2021/01/24 06:43:32;;;;;;;59.72;30.90;;;;;;;;;;5007163;28;20042;-65
2021/01/24 06:46:20;;;;;;;62.00;28.02;;;;;;;;;;5015371;28;20133;-65
2021/01/24 06:49:05;;;;;;;61.92;28.48;;;;;;;;;;5015556;28;20046;-64
2021/01/24 06:51:50;;;;;;;54.60;26.98;;;;;;;;;;5014357;28;20416;-64
2021/01/24 06:54:35;;;;;;;58.25;28.42;;;;;;;;;;4999794;28;20045;-65
2021/01/24 06:57:21;;;;;;;57.03;26.48;;;;;;;;;;5015350;28;20053;-65
2021/01/24 07:00:19;;;;;;;49.20;23.63;;;;;;;;;;4994362;28;20046;-65
2021/01/24 07:03:16;;;;;;;48.20;23.58;;;;;;;;;;5009925;28;20072;-65
2021/01/24 07:06:21;;;;;;;42.28;22.35;;;;;;;;;;5015056;28;20121;-65
2021/01/24 07:09:27;;;;;;;45.25;23.73;;;;;;;;;;5015060;28;20042;-65
2021/01/24 07:12:13;;;;;;;48.13;23.17;;;;;;;;;;5014822;28;20050;-65
2021/01/24 07:14:58;;;;;;;44.67;21.10;;;;;;;;;;5014999;28;20447;-64
2021/01/24 07:17:44;;;;;;;42.75;20.45;;;;;;;;;;5000274;28;20096;-64
2021/01/24 07:20:29;;;;;;;43.00;21.67;;;;;;;;;;4992483;28;20100;-65
2021/01/24 07:23:14;;;;;;;45.20;21.42;;;;;;;;;;5010623;28;20048;-65
2021/01/24 07:26:01;;;;;;;42.80;21.88;;;;;;;;;;5013998;28;20488;-65
2021/01/24 07:28:46;;;;;;;45.17;19.95;;;;;;;;;;5014864;28;20050;-64
2021/01/24 07:31:32;;;;;;;46.88;19.92;;;;;;;;;;4997216;28;20527;-65
2021/01/24 07:34:20;;;;;;;42.10;18.83;;;;;;;;;;5014638;28;20052;-64
2021/01/24 07:37:05;;;;;;;42.25;19.65;;;;;;;;;;5014443;28;20120;-65
2021/01/24 07:39:51;;;;;;;35.72;16.80;;;;;;;;;;5014486;28;20041;-65
2021/01/24 07:42:36;;;;;;;40.88;17.05;;;;;;;;;;5014206;28;20480;-65
2021/01/24 07:45:22;;;;;;;35.55;16.90;;;;;;;;;;5014537;28;20042;-65
2021/01/24 07:48:07;;;;;;;34.25;17.58;;;;;;;;;;4999003;28;20050;-65
2021/01/24 07:50:52;;;;;;;32.25;15.80;;;;;;;;;;5013896;28;20555;-64
2021/01/24 07:53:38;;;;;;;31.92;16.65;;;;;;;;;;5014256;28;20050;-65
2021/01/24 07:56:23;;;;;;;32.15;15.20;;;;;;;;;;4994232;28;20047;-65
2021/01/24 07:59:09;;;;;;;36.17;15.52;;;;;;;;;;5014135;28;20511;-65
2021/01/24 08:01:54;;;;;;;28.20;14.02;;;;;;;;;;4998981;28;20042;-65
2021/01/24 08:04:39;;;;;;;35.25;14.70;;;;;;;;;;5014158;28;20049;-65
2021/01/24 08:07:24;;;;;;;27.98;13.00;;;;;;;;;;5013882;28;20467;-65
2021/01/24 08:10:09;;;;;;;25.95;12.77;;;;;;;;;;5013885;28;20085;-64
2021/01/24 08:12:56;;;;;;;21.50;10.30;;;;;;;;;;5013718;28;20097;-65
2021/01/24 08:15:41;;;;;;;24.80;13.23;;;;;;;;;;5013840;28;20045;-65
2021/01/24 08:18:27;;;;;;;29.58;12.73;;;;;;;;;;5013912;28;20129;-65
2021/01/24 08:21:12;;;;;;;23.70;11.65;;;;;;;;;;5013587;28;20045;-64
2021/01/24 08:23:57;;;;;;;31.15;12.45;;;;;;;;;;4994445;28;20121;-65
2021/01/24 08:26:43;;;;;;;27.20;11.60;;;;;;;;;;5013542;28;20046;-65
2021/01/24 08:29:34;;;;;;;27.38;11.02;;;;;;;;;;5013669;28;20077;-65
2021/01/24 08:32:20;;;;;;;26.00;11.07;;;;;;;;;;4992216;28;20043;-65
2021/01/24 08:35:05;;;;;;;27.77;11.25;;;;;;;;;;4998866;28;20042;-65
2021/01/24 08:37:51;;;;;;;23.08;11.27;;;;;;;;;;5013205;28;20042;-65
2021/01/24 08:40:36;;;;;;;25.38;11.80;;;;;;;;;;4998504;28;20489;-65
2021/01/24 08:43:23;;;;;;;24.58;11.95;;;;;;;;;;5013480;28;20042;-65
2021/01/24 08:46:20;;;;;;;21.23;11.48;;;;;;;;;;5013241;28;20136;-65
2021/01/24 08:49:09;;;;;;;20.13;9.32;;;;;;;;;;5011877;28;20437;-65
2021/01/24 08:51:58;;;;;;;23.33;9.63;;;;;;;;;;5012860;28;20050;-65
2021/01/24 08:54:43;;;;;;;19.10;10.85;;;;;;;;;;5012952;28;20074;-65
2021/01/24 08:57:32;;;;;;;17.00;9.57;;;;;;;;;;5012668;28;20038;-64
2021/01/24 09:00:17;;;;;;;13.32;8.88;;;;;;;;;;5012425;28;20056;-65
2021/01/24 09:03:03;;;;;;;13.40;8.65;;;;;;;;;;5012859;28;20042;-65
2021/01/24 09:05:48;;;;;;;19.00;8.27;;;;;;;;;;4998058;28;20049;-65
2021/01/24 09:08:33;;;;;;;19.98;9.90;;;;;;;;;;4998361;28;20053;-65
2021/01/24 09:11:18;;;;;;;19.63;10.35;;;;;;;;;;5012773;28;20058;-65
2021/01/24 09:14:04;;;;;;;19.25;10.65;;;;;;;;;;5012816;28;20037;-65
2021/01/24 09:16:59;;;;;;;18.33;9.20;;;;;;;;;;5005116;28;20066;-65
2021/01/24 09:19:45;;;;;;;24.63;9.93;;;;;;;;;;5012594;28;20046;-66
2021/01/24 09:22:31;;;;;;;21.98;8.85;;;;;;;;;;5012319;28;20524;-65
2021/01/24 09:25:16;;;;;;;17.10;8.05;;;;;;;;;;5012667;28;20049;-66
2021/01/24 09:28:01;;;;;;;17.38;7.85;;;;;;;;;;5012097;28;20046;-66
2021/01/24 09:30:47;;;;;;;16.15;7.97;;;;;;;;;;4993748;28;20109;-66
2021/01/24 09:33:32;;;;;;;15.23;8.18;;;;;;;;;;5007955;28;20071;-66
2021/01/24 09:36:17;;;;;;;16.52;8.55;;;;;;;;;;5010636;28;20049;-65
2021/01/24 09:39:03;;;;;;;10.85;6.40;;;;;;;;;;5012406;28;20046;-66
2021/01/24 09:41:48;;;;;;;16.40;9.38;;;;;;;;;;5010913;28;20480;-66
2021/01/24 09:44:34;;;;;;;12.27;10.32;;;;;;;;;;5011104;28;20046;-66
2021/01/24 09:47:19;;;;;;;9.05;5.93;;;;;;;;;;5012200;28;20248;-67
2021/01/24 09:50:05;;;;;;;9.20;5.32;;;;;;;;;;5012248;28;20516;-66
2021/01/24 09:52:50;;;;;;;7.80;3.67;;;;;;;;;;5011691;28;20045;-66
2021/01/24 09:55:35;;;;;;;8.57;5.22;;;;;;;;;;4997383;28;20530;-66
2021/01/24 09:58:21;;;;;;;7.32;4.00;;;;;;;;;;5011890;28;20045;-67
2021/01/24 10:01:06;;;;;;;11.27;4.68;;;;;;;;;;5011580;28;20500;-66
2021/01/24 10:03:51;;;;;;;6.38;3.97;;;;;;;;;;5011550;28;20077;-67
2021/01/24 10:06:37;;;;;;;8.88;4.22;;;;;;;;;;5001775;28;20484;-67
2021/01/24 10:09:22;;;;;;;8.35;4.07;;;;;;;;;;4999048;28;20042;-66
2021/01/24 10:12:08;;;;;;;9.13;4.78;;;;;;;;;;5005543;28;20116;-66
2021/01/24 10:14:53;;;;;;;7.53;4.47;;;;;;;;;;5008684;28;20042;-67
2021/01/24 10:17:39;;;;;;;11.32;3.88;;;;;;;;;;5015507;28;20132;-66
2021/01/24 10:20:24;;;;;;;5.00;3.63;;;;;;;;;;5015866;28;20042;-66
2021/01/24 10:23:09;;;;;;;6.50;2.20;;;;;;;;;;5015820;28;20042;-66
2021/01/24 10:25:56;;;;;;;6.25;2.10;;;;;;;;;;5015840;28;20045;-66
2021/01/24 10:28:41;;;;;;;5.70;2.33;;;;;;;;;;5015628;28;20046;-67
2021/01/24 10:31:27;;;;;;;5.05;2.10;;;;;;;;;;5015426;28;20045;-66
2021/01/24 10:34:12;;;;;;;3.47;1.70;;;;;;;;;;5008465;28;20072;-67
2021/01/24 10:36:58;;;;;;;3.35;1.55;;;;;;;;;;5015487;28;20116;-67
2021/01/24 10:39:43;;;;;;;4.05;1.60;;;;;;;;;;4996179;28;20042;-66
2021/01/24 10:42:28;;;;;;;5.70;1.63;;;;;;;;;;5013332;28;20073;-67
2021/01/24 10:45:14;;;;;;;2.47;1.20;;;;;;;;;;5015277;28;20176;-66
2021/01/24 10:47:59;;;;;;;3.58;1.23;;;;;;;;;;5014833;28;20516;-67
2021/01/24 10:50:44;;;;;;;4.25;1.55;;;;;;;;;;5053314;23;20045;-67
2021/01/24 10:53:30;;;;;;;6.30;1.35;;;;;;;;;;4995899;28;20475;-67
2021/01/24 10:56:16;;;;;;;5.07;1.50;;;;;;;;;;4996032;28;20043;-67
2021/01/24 10:59:02;;;;;;;4.70;1.77;;;;;;;;;;5015245;28;20046;-67
2021/01/24 11:01:47;;;;;;;4.05;1.25;;;;;;;;;;5015113;28;20041;-67
2021/01/24 11:04:33;;;;;;;2.20;1.30;;;;;;;;;;5017461;28;20046;-67
2021/01/24 11:07:18;;;;;;;2.90;1.20;;;;;;;;;;5024862;28;20073;-67
2021/01/24 11:10:07;;;;;;;2.33;1.15;;;;;;;;;;5029645;28;20496;-68
2021/01/24 11:12:53;;;;;;;2.42;0.80;;;;;;;;;;5034764;28;20069;-67
2021/01/24 11:15:38;;;;;;;2.10;1.08;;;;;;;;;;5034791;28;20049;-68
2021/01/24 11:18:24;;;;;;;4.43;1.40;;;;;;;;;;5022298;28;20042;-68
2021/01/24 11:21:09;;;;;;;2.80;0.95;;;;;;;;;;5022291;28;20120;-67
2021/01/24 11:23:56;;;;;;;3.58;0.93;;;;;;;;;;5031663;28;20038;-67
2021/01/24 11:26:42;;;;;;;1.80;0.73;;;;;;;;;;5034363;28;20041;-68
2021/01/24 11:29:27;;;;;;;2.53;1.13;;;;;;;;;;5014555;28;20049;-67
2021/01/24 11:32:12;;;;;;;1.67;0.60;;;;;;;;;;5014819;28;20057;-68
2021/01/24 11:34:57;;;;;;;2.80;0.55;;;;;;;;;;5013648;28;20462;-67
2021/01/24 11:37:42;;;;;;;1.45;0.55;;;;;;;;;;5014215;28;20050;-67
2021/01/24 11:40:27;;;;;;;4.07;0.98;;;;;;;;;;5016258;28;20145;-67
2021/01/24 11:43:13;;;;;;;1.67;0.68;;;;;;;;;;5031194;28;20033;-67
2021/01/24 11:45:58;;;;;;;3.13;0.68;;;;;;;;;;5014176;28;20041;-67
2021/01/24 11:48:44;;;;;;;4.68;1.25;;;;;;;;;;4999426;28;20488;-67
2021/01/24 11:51:29;;;;;;;1.42;0.40;;;;;;;;;;4999402;28;20412;-67
2021/01/24 11:54:14;;;;;;;0.88;0.50;;;;;;;;;;5014204;28;20038;-68
2021/01/24 11:56:59;;;;;;;2.05;0.30;;;;;;;;;;4999312;28;20046;-67
2021/01/24 11:59:44;;;;;;;4.03;0.57;;;;;;;;;;5014034;28;20058;-68
2021/01/24 12:02:30;;;;;;;1.30;0.43;;;;;;;;;;5026696;28;20116;-67
2021/01/24 12:05:15;;;;;;;0.95;0.40;;;;;;;;;;5033546;28;20049;-68
2021/01/24 12:08:01;;;;;;;2.60;0.40;;;;;;;;;;5033381;28;20045;-68
2021/01/24 12:10:46;;;;;;;1.52;0.40;;;;;;;;;;5032718;28;20065;-67
2021/01/24 12:13:31;;;;;;;1.75;0.32;;;;;;;;;;5032226;28;20050;-68
2021/01/24 12:16:17;;;;;;;1.63;0.50;;;;;;;;;;5032256;28;20050;-68
2021/01/24 12:19:02;;;;;;;2.00;0.20;;;;;;;;;;5033472;28;20045;-67
2021/01/24 12:21:48;;;;;;;1.17;0.30;;;;;;;;;;5022787;28;20046;-67
2021/01/24 12:24:33;;;;;;;1.38;0.40;;;;;;;;;;5013683;28;20041;-68
2021/01/24 12:27:18;;;;;;;1.77;0.57;;;;;;;;;;5013509;28;20042;-67
2021/01/24 12:30:04;;;;;;;1.73;0.40;;;;;;;;;;5014086;28;20045;-68
2021/01/24 12:32:49;;;;;;;0.70;0.40;;;;;;;;;;5022228;28;20120;-68
2021/01/24 12:35:35;;;;;;;1.95;0.50;;;;;;;;;;5023111;28;20042;-67
2021/01/24 12:38:20;;;;;;;0.95;0.30;;;;;;;;;;5023587;28;20068;-68
2021/01/24 12:41:06;;;;;;;2.97;0.50;;;;;;;;;;5021758;28;20050;-68
2021/01/24 12:43:51;;;;;;;0.65;0.25;;;;;;;;;;5022980;28;20487;-68
2021/01/24 12:46:36;;;;;;;3.45;0.50;;;;;;;;;;5024162;28;20427;-68
2021/01/24 12:49:22;;;;;;;1.25;0.45;;;;;;;;;;5023591;28;20045;-68
2021/01/24 12:52:07;;;;;;;1.33;0.40;;;;;;;;;;5022835;28;20042;-68
2021/01/24 16:13:21;;;;;;;1.33;0.60;;;;;;;;;;5150417;27;20391;-65
2021/01/24 16:16:07;;;;;;;4.00;0.73;;;;;;;;;;5150591;27;20442;-65
2021/01/24 16:18:52;;;;;;;2.97;0.55;;;;;;;;;;5150540;27;20043;-65
2021/01/24 16:21:37;;;;;;;1.80;0.60;;;;;;;;;;5132619;27;20138;-65
2021/01/24 16:24:23;;;;;;;5.45;0.57;;;;;;;;;;5129954;28;20485;-65
2021/01/24 16:27:08;;;;;;;3.20;0.73;;;;;;;;;;5128540;28;20049;-65
2021/01/24 16:29:53;;;;;;;2.75;0.68;;;;;;;;;;5124063;27;20151;-66
2021/01/24 16:32:38;;;;;;;4.88;0.70;;;;;;;;;;5088616;28;20048;-66
2021/01/24 16:35:24;;;;;;;4.00;0.93;;;;;;;;;;5088997;28;20044;-65
2021/01/24 16:38:09;;;;;;;3.33;1.20;;;;;;;;;;5088641;28;20463;-65
2021/01/24 16:40:55;;;;;;;4.30;1.30;;;;;;;;;;5088586;28;20119;-66
2021/01/24 16:43:40;;;;;;;3.83;1.45;;;;;;;;;;5081606;28;20048;-65
2021/01/24 16:46:25;;;;;;;4.68;1.30;;;;;;;;;;5088616;28;20041;-66
2021/01/24 16:49:10;;;;;;;5.65;1.42;;;;;;;;;;5088296;28;20121;-65
2021/01/24 16:51:56;;;;;;;8.05;2.60;;;;;;;;;;5088206;28;20044;-65
2021/01/24 16:54:41;;;;;;;3.10;1.70;;;;;;;;;;5088350;28;20398;-65
2021/01/24 16:57:26;;;;;;;5.95;1.70;;;;;;;;;;5088358;28;20486;-65
2021/01/24 17:00:12;;;;;;;7.85;1.65;;;;;;;;;;5088225;28;20048;-65
2021/01/24 17:02:58;;;;;;;3.53;1.27;;;;;;;;;;5088227;28;20403;-65
2021/01/24 17:05:43;;;;;;;3.08;1.52;;;;;;;;;;5088539;28;20056;-66
2021/01/24 17:08:29;;;;;;;3.95;1.33;;;;;;;;;;5088229;28;20044;-65
2021/01/24 17:11:14;;;;;;;3.95;1.40;;;;;;;;;;5087497;28;20056;-65
2021/01/24 17:13:59;;;;;;;3.03;1.40;;;;;;;;;;5068364;28;20033;-65
2021/01/24 17:16:45;;;;;;;6.68;2.33;;;;;;;;;;5060271;28;20065;-65
2021/01/24 17:19:30;;;;;;;4.75;1.27;;;;;;;;;;5066036;28;20048;-65
2021/01/24 17:22:20;;;;;;;3.88;1.27;;;;;;;;;;5080780;28;20131;-65
2021/01/24 17:25:06;;;;;;;2.78;1.17;;;;;;;;;;5065123;28;20040;-65
2021/01/24 17:27:51;;;;;;;5.40;2.63;;;;;;;;;;5081313;28;20392;-65
2021/01/24 17:30:36;;;;;;;4.75;1.80;;;;;;;;;;5073949;28;20086;-64
2021/01/24 17:33:21;;;;;;;2.85;1.90;;;;;;;;;;5079348;28;20070;-65
2021/01/24 17:36:07;;;;;;;4.90;2.10;;;;;;;;;;5071226;28;20045;-65
2021/01/24 17:38:52;;;;;;;5.32;1.70;;;;;;;;;;5065490;28;20479;-65
2021/01/24 17:41:37;;;;;;;4.93;1.95;;;;;;;;;;5070667;28;20072;-64
2021/01/24 17:44:22;;;;;;;4.18;2.03;;;;;;;;;;5072452;28;20074;-65
2021/01/24 17:47:08;;;;;;;6.55;2.15;;;;;;;;;;5071723;28;20748;-64
2021/01/24 17:49:53;;;;;;;4.82;2.40;;;;;;;;;;5070800;28;20037;-65
2021/01/24 17:52:38;;;;;;;6.00;2.40;;;;;;;;;;5071707;28;20048;-65
2021/01/24 17:55:23;;;;;;;9.32;2.53;;;;;;;;;;5072158;28;20498;-65
2021/01/24 17:58:09;;;;;;;5.72;2.17;;;;;;;;;;5071659;28;20052;-65
2021/01/24 18:00:54;;;;;;;6.85;2.60;;;;;;;;;;5071288;28;20049;-65
2021/01/24 18:03:40;;;;;;;4.93;2.65;;;;;;;;;;5071123;28;20048;-65
2021/01/24 18:06:25;;;;;;;2.90;2.05;;;;;;;;;;5071700;28;20510;-65
2021/01/24 18:09:10;;;;;;;5.50;2.47;;;;;;;;;;5072023;28;20048;-65
2021/01/24 18:11:55;;;;;;;7.13;2.90;;;;;;;;;;5067211;28;20562;-65
2021/01/24 18:14:40;;;;;;;8.43;3.10;;;;;;;;;;5071154;28;20041;-65
2021/01/24 18:17:28;;;;;;;4.43;2.38;;;;;;;;;;5051820;28;20053;-65
2021/01/24 18:20:14;;;;;;;7.07;2.90;;;;;;;;;;5051882;28;20049;-65
2021/01/24 18:22:59;;;;;;;6.38;3.00;;;;;;;;;;5054975;28;20049;-65
2021/01/24 18:25:44;;;;;;;6.43;2.90;;;;;;;;;;5066638;28;20467;-65
2021/01/24 18:28:30;;;;;;;9.38;4.47;;;;;;;;;;5062503;28;20040;-64
2021/01/24 18:31:15;;;;;;;6.90;3.60;;;;;;;;;;5067659;28;20048;-64
2021/01/24 18:34:00;;;;;;;5.10;3.75;;;;;;;;;;5069433;28;20048;-64
2021/01/24 18:36:46;;;;;;;8.98;3.88;;;;;;;;;;5068524;28;20131;-64
2021/01/24 18:39:31;;;;;;;4.78;3.30;;;;;;;;;;5071461;28;20040;-64
2021/01/24 18:42:16;;;;;;;6.65;3.35;;;;;;;;;;5067823;28;20045;-64
2021/01/24 18:45:01;;;;;;;8.73;3.72;;;;;;;;;;5069921;28;20044;-64
2021/01/24 18:47:46;;;;;;;7.40;4.68;;;;;;;;;;5068763;28;20040;-64
2021/01/24 18:50:31;;;;;;;11.68;5.22;;;;;;;;;;5070113;28;20418;-64
2021/01/24 18:53:17;;;;;;;8.45;3.72;;;;;;;;;;5065503;28;20128;-64
2021/01/24 18:56:02;;;;;;;9.30;3.92;;;;;;;;;;5066289;28;20083;-64
2021/01/24 18:58:48;;;;;;;10.00;4.25;;;;;;;;;;5069413;28;20064;-64
2021/01/24 19:01:33;;;;;;;10.57;4.53;;;;;;;;;;5063730;28;20044;-64
2021/01/24 19:04:18;;;;;;;11.30;4.50;;;;;;;;;;5068937;28;20079;-64
2021/01/24 19:07:04;;;;;;;6.95;4.15;;;;;;;;;;5069135;28;20131;-64
2021/01/24 19:09:49;;;;;;;5.30;3.88;;;;;;;;;;5068063;28;20127;-64
2021/01/24 19:12:34;;;;;;;11.40;5.40;;;;;;;;;;5066514;28;20056;-64
2021/01/24 19:15:19;;;;;;;6.20;4.50;;;;;;;;;;5070741;28;20119;-64
2021/01/24 19:18:05;;;;;;;7.53;4.70;;;;;;;;;;5055889;28;20495;-63
2021/01/24 19:20:50;;;;;;;7.75;4.55;;;;;;;;;;5053744;28;20057;-64
2021/01/24 19:23:35;;;;;;;8.75;3.83;;;;;;;;;;5049310;28;20053;-64
2021/01/24 19:26:20;;;;;;;8.93;4.57;;;;;;;;;;5044276;28;20136;-64
2021/01/24 19:29:05;;;;;;;12.63;5.22;;;;;;;;;;5030614;28;20519;-64
2021/01/24 19:31:51;;;;;;;7.93;3.80;;;;;;;;;;5038245;28;20123;-64
2021/01/24 19:34:37;;;;;;;7.18;4.00;;;;;;;;;;5049615;28;20075;-64